Time;durP1;ratioP1;P1;durP2;ratioP2;P2;SDS_P1;SDS_P2;PMS_P1;PMS_P2;Temp;Humidity;BMP_temperature;BMP_pressure;BME280_temperature;BME280_humidity;BME280_pressure;Samples;Min_cycle;Max_cycle;Signal;HPM_P1;HPM_P2
2022/10/28 00:01:08;;;;;;;26.38;13.48;;;;;;;;;;4857515;29;20046;-74
2022/10/28 00:03:43;;;;;;;28.48;13.18;;;;;;;;;;4859057;29;20041;-75
2022/10/28 00:06:12;;;;;;;24.85;15.05;;;;;;;;;;4859437;29;20029;-75
2022/10/28 00:08:38;;;;;;;21.33;13.52;;;;;;;;;;4859588;29;20053;-75
2022/10/28 00:11:07;;;;;;;26.63;15.75;;;;;;;;;;4858620;29;20061;-76
2022/10/28 00:13:34;;;;;;;28.35;15.40;;;;;;;;;;4859729;29;20036;-76
2022/10/28 00:16:08;;;;;;;26.00;15.38;;;;;;;;;;4859601;29;20033;-73
2022/10/28 00:18:34;;;;;;;25.40;14.30;;;;;;;;;;4860869;29;20489;-74
2022/10/28 00:21:02;;;;;;;26.60;14.35;;;;;;;;;;4861105;29;20545;-73
2022/10/28 00:23:29;;;;;;;23.90;14.32;;;;;;;;;;4861542;29;20041;-74
2022/10/28 00:25:55;;;;;;;24.52;14.27;;;;;;;;;;4861826;29;20033;-74
2022/10/28 00:28:20;;;;;;;32.40;15.63;;;;;;;;;;4860911;29;20116;-73
2022/10/28 00:30:46;;;;;;;26.70;15.35;;;;;;;;;;4858185;29;20032;-73
2022/10/28 00:33:12;;;;;;;27.00;15.25;;;;;;;;;;4859023;29;20041;-73
2022/10/28 00:35:38;;;;;;;25.35;16.50;;;;;;;;;;4857240;29;20183;-73
2022/10/28 00:38:04;;;;;;;33.42;15.88;;;;;;;;;;4865487;29;20037;-73
2022/10/28 00:40:33;;;;;;;26.77;15.43;;;;;;;;;;4860104;29;20493;-72
2022/10/28 00:42:59;;;;;;;26.45;15.27;;;;;;;;;;4855584;29;20048;-73
2022/10/28 00:45:25;;;;;;;26.05;17.15;;;;;;;;;;4863880;29;20029;-70
2022/10/28 00:48:01;;;;;;;27.58;15.57;;;;;;;;;;4859556;29;21064;-70
2022/10/28 00:50:27;;;;;;;23.83;15.38;;;;;;;;;;4860122;29;20033;-71
2022/10/28 00:52:59;;;;;;;23.83;15.98;;;;;;;;;;4860764;29;20382;-71
2022/10/28 00:55:25;;;;;;;27.80;13.70;;;;;;;;;;4860350;29;20044;-71
2022/10/28 00:57:55;;;;;;;27.27;15.35;;;;;;;;;;4858248;29;20030;-71
2022/10/28 01:00:23;;;;;;;24.63;15.88;;;;;;;;;;4858240;29;20337;-72
2022/10/28 01:02:49;;;;;;;26.52;16.10;;;;;;;;;;4859709;29;20064;-71
2022/10/28 01:05:22;;;;;;;29.65;15.57;;;;;;;;;;4859633;29;20029;-71
2022/10/28 01:07:52;;;;;;;23.83;14.67;;;;;;;;;;4858729;29;20076;-72
2022/10/28 01:10:22;;;;;;;21.92;13.32;;;;;;;;;;4860219;29;20132;-71
2022/10/28 01:13:06;;;;;;;32.28;13.73;;;;;;;;;;4858702;29;20493;-72
2022/10/28 01:16:00;;;;;;;;;;;;;;;;;;4858926;29;20116;-71
2022/10/28 01:18:39;;;;;;;;;;;;;;;;;;4859513;29;19916;-71
2022/10/28 01:21:33;;;;;;;26.50;13.63;;;;;;;;;;4854639;29;20019;-74
2022/10/28 01:24:36;;;;;;;25.40;13.27;;;;;;;;;;4853876;29;20455;-73
2022/10/28 01:27:30;;;;;;;23.58;12.80;;;;;;;;;;4859451;29;20481;-72
2022/10/28 01:30:28;;;;;;;18.98;12.02;;;;;;;;;;4859454;29;20396;-72
2022/10/28 01:33:10;;;;;;;18.75;12.00;;;;;;;;;;4858475;29;20053;-72
2022/10/28 01:35:51;;;;;;;21.27;12.55;;;;;;;;;;4861491;29;20052;-72
2022/10/28 01:38:40;;;;;;;20.05;12.10;;;;;;;;;;4856038;29;20029;-71
2022/10/28 01:41:16;;;;;;;17.30;12.45;;;;;;;;;;4855112;29;20098;-73
2022/10/28 01:43:56;;;;;;;17.52;12.38;;;;;;;;;;4859587;29;20049;-72
2022/10/28 01:46:34;;;;;;;19.58;10.98;;;;;;;;;;4857986;29;20117;-72
2022/10/28 01:49:20;;;;;;;21.25;11.15;;;;;;;;;;4856396;29;20111;-72
2022/10/28 01:51:51;;;;;;;23.15;11.70;;;;;;;;;;4858819;29;20567;-73
2022/10/28 01:54:22;;;;;;;18.70;10.77;;;;;;;;;;4858960;29;20025;-72
2022/10/28 01:56:49;;;;;;;17.60;10.57;;;;;;;;;;4859077;29;20177;-73
2022/10/28 01:59:27;;;;;;;19.23;9.73;;;;;;;;;;4859008;29;20026;-72
2022/10/28 02:01:53;;;;;;;16.13;9.10;;;;;;;;;;4856697;29;20037;-72
2022/10/28 02:04:19;;;;;;;15.02;9.13;;;;;;;;;;4859178;29;20026;-72
2022/10/28 02:06:49;;;;;;;16.48;9.25;;;;;;;;;;4858991;29;20041;-73
2022/10/28 02:09:23;;;;;;;15.48;8.27;;;;;;;;;;4858930;29;20042;-72
2022/10/28 02:12:03;;;;;;;15.10;8.10;;;;;;;;;;4858351;29;20056;-72
2022/10/28 02:14:56;;;;;;;13.60;8.65;;;;;;;;;;4858285;29;20037;-72
2022/10/28 02:18:02;;;;;;;18.70;8.47;;;;;;;;;;4855649;29;20040;-72
2022/10/28 02:20:50;;;;;;;16.58;9.20;;;;;;;;;;4858297;29;20040;-73
2022/10/28 02:23:37;;;;;;;12.40;7.72;;;;;;;;;;4862521;29;20493;-73
2022/10/28 02:26:15;;;;;;;12.52;7.53;;;;;;;;;;4857696;29;20041;-72
2022/10/28 02:28:44;;;;;;;12.55;7.30;;;;;;;;;;4861646;29;20065;-72
2022/10/28 02:31:20;;;;;;;14.18;8.02;;;;;;;;;;4860812;29;20029;-72
2022/10/28 02:33:51;;;;;;;14.15;7.70;;;;;;;;;;4862996;29;20049;-72
2022/10/28 02:36:19;;;;;;;14.07;8.88;;;;;;;;;;4862444;29;20493;-71
2022/10/28 02:38:49;;;;;;;14.27;8.63;;;;;;;;;;4860902;29;20046;-72
2022/10/28 02:41:21;;;;;;;16.92;8.32;;;;;;;;;;4862144;29;20044;-71
2022/10/28 02:43:52;;;;;;;14.73;7.55;;;;;;;;;;4862345;29;20192;-74
2022/10/28 02:46:19;;;;;;;14.32;8.50;;;;;;;;;;4860965;29;20041;-73
2022/10/28 02:48:50;;;;;;;13.70;7.70;;;;;;;;;;4861953;29;20029;-73
2022/10/28 02:51:33;;;;;;;12.23;8.00;;;;;;;;;;4862232;29;20041;-72
2022/10/28 02:54:10;;;;;;;12.93;8.20;;;;;;;;;;4859000;29;20128;-73
2022/10/28 02:57:16;;;;;;;19.77;10.95;;;;;;;;;;4862303;29;20041;-73
2022/10/28 02:59:42;;;;;;;21.75;12.93;;;;;;;;;;4860287;29;20063;-73
2022/10/28 03:02:08;;;;;;;24.42;13.90;;;;;;;;;;4860484;29;20101;-73
2022/10/28 03:04:34;;;;;;;25.27;13.32;;;;;;;;;;4862370;29;20136;-74
2022/10/28 03:07:00;;;;;;;22.17;13.40;;;;;;;;;;4862113;29;20380;-73
2022/10/28 03:09:26;;;;;;;29.17;14.60;;;;;;;;;;4862041;29;20121;-74
2022/10/28 03:11:52;;;;;;;28.00;14.20;;;;;;;;;;4862140;29;20500;-73
2022/10/28 03:14:18;;;;;;;29.23;13.63;;;;;;;;;;4862028;29;20554;-73
2022/10/28 03:16:43;;;;;;;20.48;12.57;;;;;;;;;;4860185;29;20182;-73
2022/10/28 03:19:09;;;;;;;21.65;12.77;;;;;;;;;;4861853;29;20041;-74
2022/10/28 03:21:35;;;;;;;22.50;12.40;;;;;;;;;;4861514;29;20037;-73
2022/10/28 03:24:01;;;;;;;22.70;12.65;;;;;;;;;;4861844;29;20044;-73
2022/10/28 03:26:26;;;;;;;21.75;12.68;;;;;;;;;;4861451;29;20109;-73
2022/10/28 03:28:52;;;;;;;20.70;12.15;;;;;;;;;;4861530;29;20174;-73
2022/10/28 03:31:18;;;;;;;25.60;13.68;;;;;;;;;;4859626;29;20044;-73
2022/10/28 03:33:44;;;;;;;22.30;12.02;;;;;;;;;;4861668;29;20038;-72
2022/10/28 03:36:10;;;;;;;20.70;12.23;;;;;;;;;;4861605;29;20511;-73
2022/10/28 03:38:36;;;;;;;20.88;12.07;;;;;;;;;;4861286;29;20089;-73
2022/10/28 03:41:02;;;;;;;29.00;13.70;;;;;;;;;;4861696;29;20482;-73
2022/10/28 03:43:27;;;;;;;24.17;12.65;;;;;;;;;;4861488;29;20349;-73
2022/10/28 03:45:53;;;;;;;21.00;11.55;;;;;;;;;;4860437;29;20025;-73
2022/10/28 03:48:19;;;;;;;20.67;10.57;;;;;;;;;;4861038;29;20038;-74
2022/10/28 03:50:45;;;;;;;16.23;10.32;;;;;;;;;;4860873;29;20537;-73
2022/10/28 03:53:11;;;;;;;21.15;9.77;;;;;;;;;;4861217;29;20067;-74
2022/10/28 03:55:36;;;;;;;17.63;9.68;;;;;;;;;;4861237;29;20057;-73
2022/10/28 03:58:03;;;;;;;19.60;10.63;;;;;;;;;;4860184;29;20416;-74
2022/10/28 04:00:29;;;;;;;18.20;10.20;;;;;;;;;;4861102;29;20480;-73
2022/10/28 04:02:54;;;;;;;22.23;10.40;;;;;;;;;;4852414;29;20045;-72
2022/10/28 04:05:20;;;;;;;16.88;8.45;;;;;;;;;;4859145;29;20029;-73
2022/10/28 04:07:46;;;;;;;18.13;8.98;;;;;;;;;;4857096;29;20177;-74
2022/10/28 04:10:12;;;;;;;25.65;10.98;;;;;;;;;;4858394;29;20041;-74
2022/10/28 04:12:38;;;;;;;15.85;10.10;;;;;;;;;;4858199;29;20447;-74
2022/10/28 04:15:05;;;;;;;17.38;9.90;;;;;;;;;;4858780;29;20036;-74
2022/10/28 04:17:33;;;;;;;21.85;10.93;;;;;;;;;;4858683;29;20034;-73
2022/10/28 04:19:59;;;;;;;20.58;10.02;;;;;;;;;;4858892;29;20038;-75
2022/10/28 04:22:24;;;;;;;19.90;9.48;;;;;;;;;;4858678;29;20389;-74
2022/10/28 04:24:53;;;;;;;17.85;10.57;;;;;;;;;;4870238;29;20512;-74
2022/10/28 04:27:20;;;;;;;22.70;10.80;;;;;;;;;;4861404;29;20034;-73
2022/10/28 04:29:45;;;;;;;20.48;9.88;;;;;;;;;;4869038;29;20462;-73
2022/10/28 04:32:11;;;;;;;17.45;10.38;;;;;;;;;;4875628;29;20029;-74
2022/10/28 04:34:37;;;;;;;18.20;9.68;;;;;;;;;;4874437;29;20017;-75
2022/10/28 04:37:03;;;;;;;17.35;9.80;;;;;;;;;;4875650;29;20397;-74
2022/10/28 04:39:29;;;;;;;15.48;10.18;;;;;;;;;;4874946;29;20108;-74
2022/10/28 04:41:55;;;;;;;20.35;10.38;;;;;;;;;;4874920;29;20041;-73
2022/10/28 04:44:20;;;;;;;18.58;10.77;;;;;;;;;;4874911;29;20358;-73
2022/10/28 04:46:46;;;;;;;19.60;10.73;;;;;;;;;;4873717;29;20040;-73
2022/10/28 04:49:12;;;;;;;17.35;10.70;;;;;;;;;;4875740;29;20504;-73
2022/10/28 04:51:38;;;;;;;15.63;10.07;;;;;;;;;;4867598;29;20089;-74
2022/10/28 04:54:04;;;;;;;16.35;10.07;;;;;;;;;;4860635;29;20078;-75
2022/10/28 04:56:32;;;;;;;19.55;10.80;;;;;;;;;;4859980;29;20029;-76
2022/10/28 04:58:58;;;;;;;17.02;10.98;;;;;;;;;;4860285;29;20149;-75
2022/10/28 05:01:24;;;;;;;16.77;10.88;;;;;;;;;;4858352;29;20021;-73
2022/10/28 05:03:49;;;;;;;17.80;11.30;;;;;;;;;;4866826;29;20105;-72
2022/10/28 05:06:15;;;;;;;16.95;11.05;;;;;;;;;;4872896;29;20028;-73
2022/10/28 05:08:41;;;;;;;17.27;10.85;;;;;;;;;;4860379;29;20056;-73
2022/10/28 05:11:07;;;;;;;20.85;11.23;;;;;;;;;;4860634;29;20116;-74
2022/10/28 05:13:33;;;;;;;23.13;11.00;;;;;;;;;;4860212;29;20041;-73
2022/10/28 05:15:59;;;;;;;22.83;11.88;;;;;;;;;;4860380;29;20034;-74
2022/10/28 05:18:24;;;;;;;22.73;10.80;;;;;;;;;;4859597;29;20037;-74
2022/10/28 05:20:53;;;;;;;18.92;11.73;;;;;;;;;;4860172;29;20033;-75
2022/10/28 05:23:22;;;;;;;21.48;12.90;;;;;;;;;;4860117;29;20065;-72
2022/10/28 05:25:49;;;;;;;23.58;12.40;;;;;;;;;;4859381;29;20124;-73
2022/10/28 05:28:15;;;;;;;23.17;11.85;;;;;;;;;;4856065;29;20029;-73
2022/10/28 05:30:42;;;;;;;18.60;11.95;;;;;;;;;;4859927;29;20037;-74
2022/10/28 05:33:09;;;;;;;27.23;12.73;;;;;;;;;;4859768;29;20108;-73
2022/10/28 05:35:39;;;;;;;22.55;12.57;;;;;;;;;;4859794;29;20509;-73
2022/10/28 05:38:05;;;;;;;26.08;13.40;;;;;;;;;;4859810;29;20038;-73
2022/10/28 05:40:41;;;;;;;27.85;14.00;;;;;;;;;;4858827;29;20029;-72
2022/10/28 05:43:10;;;;;;;20.95;11.68;;;;;;;;;;4859955;29;20053;-71
2022/10/28 05:45:36;;;;;;;24.75;12.52;;;;;;;;;;4859663;29;20074;-74
2022/10/28 05:48:02;;;;;;;21.75;12.60;;;;;;;;;;4859971;29;20048;-73
2022/10/28 05:50:28;;;;;;;18.83;11.43;;;;;;;;;;4859848;29;20044;-73
2022/10/28 05:52:56;;;;;;;21.88;12.35;;;;;;;;;;4859708;29;20046;-73
2022/10/28 05:55:26;;;;;;;23.33;12.43;;;;;;;;;;4859639;29;20030;-73
2022/10/28 05:57:52;;;;;;;24.73;13.43;;;;;;;;;;4858897;29;20034;-73
2022/10/28 06:00:20;;;;;;;20.63;11.32;;;;;;;;;;4859738;29;20040;-73
2022/10/28 06:02:46;;;;;;;22.80;11.73;;;;;;;;;;4858591;29;20495;-74
2022/10/28 06:05:12;;;;;;;20.13;10.57;;;;;;;;;;4859491;29;20108;-73
2022/10/28 06:07:39;;;;;;;22.58;11.35;;;;;;;;;;4858756;29;20446;-73
2022/10/28 06:10:07;;;;;;;20.30;10.27;;;;;;;;;;4857893;29;20041;-74
2022/10/28 06:12:33;;;;;;;19.45;10.55;;;;;;;;;;4859039;29;20046;-73
2022/10/28 06:14:59;;;;;;;17.73;11.32;;;;;;;;;;4859701;29;20388;-73
2022/10/28 06:17:25;;;;;;;19.98;11.88;;;;;;;;;;4859414;29;20120;-73
2022/10/28 06:19:51;;;;;;;17.83;11.18;;;;;;;;;;4859274;29;20120;-74
2022/10/28 06:22:17;;;;;;;18.48;11.70;;;;;;;;;;4859436;29;20041;-73
2022/10/28 06:24:43;;;;;;;17.92;10.98;;;;;;;;;;4859382;29;20030;-75
2022/10/28 06:27:09;;;;;;;23.63;13.25;;;;;;;;;;4859379;29;20374;-74
2022/10/28 06:29:34;;;;;;;20.75;10.50;;;;;;;;;;4859263;29;20477;-75
2022/10/28 06:32:00;;;;;;;23.35;10.63;;;;;;;;;;4858067;29;20124;-75
2022/10/28 06:34:26;;;;;;;21.95;10.52;;;;;;;;;;4858776;29;20033;-74
2022/10/28 06:36:53;;;;;;;17.60;10.50;;;;;;;;;;4858729;29;20528;-75
2022/10/28 06:39:19;;;;;;;20.83;11.15;;;;;;;;;;4859267;29;20124;-74
2022/10/28 06:41:45;;;;;;;17.77;11.05;;;;;;;;;;4859170;29;20046;-75
2022/10/28 06:44:11;;;;;;;18.60;11.52;;;;;;;;;;4859157;29;20029;-75
2022/10/28 06:46:37;;;;;;;20.90;11.40;;;;;;;;;;4857606;29;20033;-79
2022/10/28 06:49:03;;;;;;;20.35;12.38;;;;;;;;;;4859453;29;20030;-77
2022/10/28 06:51:30;;;;;;;18.40;9.65;;;;;;;;;;4858164;29;20088;-75
2022/10/28 06:53:57;;;;;;;16.08;9.73;;;;;;;;;;4852421;29;20048;-78
2022/10/28 06:56:23;;;;;;;19.08;10.20;;;;;;;;;;4855119;29;20030;-78
2022/10/28 06:58:50;;;;;;;20.30;10.13;;;;;;;;;;4856935;29;20036;-77
2022/10/28 07:01:16;;;;;;;15.98;9.45;;;;;;;;;;4858596;29;20076;-76
2022/10/28 07:03:42;;;;;;;18.08;10.02;;;;;;;;;;4857865;29;20033;-77
2022/10/28 07:06:09;;;;;;;15.27;9.70;;;;;;;;;;4860387;29;20121;-75
2022/10/28 07:08:35;;;;;;;18.38;9.98;;;;;;;;;;4861118;29;20029;-78
2022/10/28 07:11:01;;;;;;;16.58;9.00;;;;;;;;;;4860852;29;20049;-77
2022/10/28 07:13:27;;;;;;;17.38;9.70;;;;;;;;;;4861779;29;20037;-79
2022/10/28 07:15:58;;;;;;;16.35;8.90;;;;;;;;;;4862126;29;20034;-77
2022/10/28 07:18:27;;;;;;;15.10;8.75;;;;;;;;;;4856645;29;20515;-77
2022/10/28 07:20:53;;;;;;;20.40;9.45;;;;;;;;;;4859850;29;20040;-78
2022/10/28 07:23:19;;;;;;;17.85;9.45;;;;;;;;;;4861810;29;20033;-77
2022/10/28 07:25:52;;;;;;;15.27;8.82;;;;;;;;;;4868840;29;20041;-77
2022/10/28 07:28:18;;;;;;;14.13;9.70;;;;;;;;;;4863888;29;20034;-77
2022/10/28 07:30:43;;;;;;;15.88;9.52;;;;;;;;;;4869769;29;20108;-77
2022/10/28 07:33:09;;;;;;;18.02;9.35;;;;;;;;;;4865053;29;20042;-77
2022/10/28 07:35:35;;;;;;;19.70;9.07;;;;;;;;;;4861377;29;20049;-79
2022/10/28 07:38:01;;;;;;;18.00;9.20;;;;;;;;;;4861320;29;20504;-77
2022/10/28 07:40:27;;;;;;;15.43;9.00;;;;;;;;;;4861191;29;20044;-78
2022/10/28 07:42:53;;;;;;;18.10;9.70;;;;;;;;;;4861446;29;20125;-81
2022/10/28 07:45:19;;;;;;;17.85;9.25;;;;;;;;;;4856805;29;20485;-80
2022/10/28 07:47:45;;;;;;;17.83;9.23;;;;;;;;;;4860423;29;20500;-78
2022/10/28 07:50:11;;;;;;;19.90;11.75;;;;;;;;;;4854633;29;20033;-77
2022/10/28 07:52:37;;;;;;;19.80;10.93;;;;;;;;;;4859425;29;20049;-75
2022/10/28 07:55:04;;;;;;;21.75;11.65;;;;;;;;;;4858756;29;20030;-78
2022/10/28 07:57:31;;;;;;;23.48;11.10;;;;;;;;;;4860724;29;20116;-77
2022/10/28 07:59:56;;;;;;;17.15;10.93;;;;;;;;;;4861136;29;20606;-81
2022/10/28 08:02:24;;;;;;;15.68;9.68;;;;;;;;;;4860284;29;20124;-77
2022/10/28 08:04:50;;;;;;;17.02;10.35;;;;;;;;;;4880469;29;20029;-79
2022/10/28 08:07:17;;;;;;;20.63;9.75;;;;;;;;;;4859230;29;20041;-78
2022/10/28 08:09:43;;;;;;;19.13;8.73;;;;;;;;;;4859915;29;20143;-76
2022/10/28 08:12:13;;;;;;;13.90;8.35;;;;;;;;;;4859902;29;20037;-77
2022/10/28 08:14:39;;;;;;;12.77;7.93;;;;;;;;;;4866382;29;20394;-77
2022/10/28 08:17:05;;;;;;;15.85;7.85;;;;;;;;;;4859605;29;20036;-78
2022/10/28 08:19:31;;;;;;;16.70;8.73;;;;;;;;;;4859988;29;20048;-78
2022/10/28 08:21:57;;;;;;;16.77;7.68;;;;;;;;;;4860672;29;20481;-78
2022/10/28 08:24:47;;;;;;;16.70;7.70;;;;;;;;;;4860044;29;20456;-81
2022/10/28 08:27:13;;;;;;;11.73;7.40;;;;;;;;;;4863668;29;20392;-78
2022/10/28 08:29:39;;;;;;;16.48;7.80;;;;;;;;;;4860616;29;20035;-77
2022/10/28 08:32:08;;;;;;;13.57;7.07;;;;;;;;;;4855918;29;20553;-77
2022/10/28 08:34:34;;;;;;;15.40;7.82;;;;;;;;;;4860005;29;20485;-79
2022/10/28 08:37:00;;;;;;;16.38;7.88;;;;;;;;;;4856753;29;20129;-77
2022/10/28 08:39:26;;;;;;;10.13;6.97;;;;;;;;;;4859045;29;20078;-76
2022/10/28 08:42:14;;;;;;;11.98;7.03;;;;;;;;;;4868048;29;20037;-78
2022/10/28 08:45:15;;;;;;;12.73;7.50;;;;;;;;;;4864598;29;20030;-77
2022/10/28 08:47:53;;;;;;;13.55;7.03;;;;;;;;;;4821554;29;20517;-80
2022/10/28 08:50:23;;;;;;;10.60;6.50;;;;;;;;;;4855385;29;20041;-80
2022/10/28 08:53:17;;;;;;;13.48;7.05;;;;;;;;;;4858191;29;20391;-79
2022/10/28 08:55:47;;;;;;;11.65;6.38;;;;;;;;;;4862583;29;20080;-77
2022/10/28 08:58:27;;;;;;;12.50;6.38;;;;;;;;;;4859645;29;20108;-81
2022/10/28 09:00:55;;;;;;;13.35;6.60;;;;;;;;;;4865572;29;20049;-81
2022/10/28 09:03:23;;;;;;;8.23;4.60;;;;;;;;;;4865970;29;20032;-79
2022/10/28 09:06:03;;;;;;;8.70;5.13;;;;;;;;;;4868487;29;20068;-79
2022/10/28 09:08:46;;;;;;;9.05;5.03;;;;;;;;;;4861840;29;20045;-78
2022/10/28 09:11:27;;;;;;;9.27;5.18;;;;;;;;;;4859667;29;20029;-79
2022/10/28 09:13:56;;;;;;;11.30;5.82;;;;;;;;;;4867693;29;20422;-78
2022/10/28 09:16:48;;;;;;;8.82;5.10;;;;;;;;;;4869415;29;20062;-79
2022/10/28 09:19:35;;;;;;;9.30;5.60;;;;;;;;;;4856280;29;20385;-80
2022/10/28 09:22:21;;;;;;;12.20;5.30;;;;;;;;;;4854319;29;20048;-77
2022/10/28 09:25:20;;;;;;;8.60;5.38;;;;;;;;;;4856004;29;20040;-74
2022/10/28 09:28:05;;;;;;;13.88;5.35;;;;;;;;;;4858957;29;20159;-77
2022/10/28 09:30:40;;;;;;;12.68;5.40;;;;;;;;;;4859224;29;20485;-78
2022/10/28 09:33:33;;;;;;;12.30;4.50;;;;;;;;;;4858080;29;20045;-78
2022/10/28 09:36:02;;;;;;;8.32;4.75;;;;;;;;;;4852653;29;20049;-78
2022/10/28 09:38:34;;;;;;;9.07;4.75;;;;;;;;;;4857778;29;20040;-78
2022/10/28 09:41:02;;;;;;;5.70;3.58;;;;;;;;;;4853728;29;20038;-82
2022/10/28 09:43:34;;;;;;;5.85;3.30;;;;;;;;;;4858590;29;20473;-76
2022/10/28 09:46:10;;;;;;;8.60;3.10;;;;;;;;;;4853084;29;20056;-77
2022/10/28 09:48:40;;;;;;;7.07;3.35;;;;;;;;;;4857960;29;20037;-77
2022/10/28 09:51:06;;;;;;;18.42;10.65;;;;;;;;;;4858975;29;20083;-76
2022/10/28 09:53:59;;;;;;;27.40;14.95;;;;;;;;;;4859807;29;20082;-77
2022/10/28 09:56:26;;;;;;;11.85;7.60;;;;;;;;;;4856722;29;20045;-79
2022/10/28 09:58:54;;;;;;;31.70;16.27;;;;;;;;;;4858437;29;20037;-76
2022/10/28 10:01:20;;;;;;;8.80;5.22;;;;;;;;;;4857893;29;20481;-76
2022/10/28 10:03:48;;;;;;;10.80;7.07;;;;;;;;;;4858551;29;20044;-76
2022/10/28 10:06:19;;;;;;;6.38;3.50;;;;;;;;;;4859181;29;20029;-79
2022/10/28 10:08:46;;;;;;;8.10;3.17;;;;;;;;;;4858319;29;20037;-76
2022/10/28 10:11:30;;;;;;;12.00;5.40;;;;;;;;;;4858079;29;20025;-76
2022/10/28 10:13:59;;;;;;;9.02;3.13;;;;;;;;;;4851227;29;20496;-77
2022/10/28 10:16:44;;;;;;;6.65;2.90;;;;;;;;;;4857249;29;20439;-78
2022/10/28 10:19:10;;;;;;;4.10;2.83;;;;;;;;;;4853473;29;20114;-79
2022/10/28 10:21:50;;;;;;;14.70;8.95;;;;;;;;;;4857753;29;20025;-77
2022/10/28 10:24:34;;;;;;;9.15;5.63;;;;;;;;;;4858255;29;20037;-78
2022/10/28 10:27:17;;;;;;;4.75;2.55;;;;;;;;;;4858215;29;20108;-82
2022/10/28 10:29:46;;;;;;;5.07;2.80;;;;;;;;;;4857239;29;20404;-81
2022/10/28 10:32:23;;;;;;;15.90;7.50;;;;;;;;;;4853452;29;20482;-81
2022/10/28 10:35:05;;;;;;;5.70;2.53;;;;;;;;;;4855505;29;20132;-78
2022/10/28 10:37:34;;;;;;;8.65;3.53;;;;;;;;;;4858898;29;20517;-80
2022/10/28 10:40:16;;;;;;;5.65;3.30;;;;;;;;;;4859780;29;20038;-78
2022/10/28 10:42:42;;;;;;;5.82;3.30;;;;;;;;;;4862859;29;20042;-77
2022/10/28 10:45:23;;;;;;;6.35;3.78;;;;;;;;;;4862853;29;20032;-81
2022/10/28 10:48:25;;;;;;;11.40;3.67;;;;;;;;;;4854519;29;20453;-79
2022/10/28 10:50:53;;;;;;;17.65;9.98;;;;;;;;;;4874415;29;20093;-80
2022/10/28 10:53:31;;;;;;;7.28;4.43;;;;;;;;;;4862614;29;20033;-79
2022/10/28 10:56:02;;;;;;;5.75;3.10;;;;;;;;;;4861184;29;20029;-78
2022/10/28 10:58:34;;;;;;;8.13;3.80;;;;;;;;;;4862461;29;20062;-78
2022/10/28 11:01:03;;;;;;;3.53;2.55;;;;;;;;;;4860937;29;20033;-79
2022/10/28 11:03:35;;;;;;;4.75;2.80;;;;;;;;;;4861663;29;20041;-77
2022/10/28 11:06:04;;;;;;;6.35;2.50;;;;;;;;;;4860212;29;20041;-79
2022/10/28 11:08:39;;;;;;;9.50;3.75;;;;;;;;;;4862468;29;20074;-79
2022/10/28 11:11:07;;;;;;;5.32;3.00;;;;;;;;;;4862365;29;20038;-76
2022/10/28 11:13:34;;;;;;;5.13;2.80;;;;;;;;;;4861795;29;20128;-81
2022/10/28 11:16:03;;;;;;;12.95;6.60;;;;;;;;;;4862224;29;20037;-80
2022/10/28 11:18:39;;;;;;;7.68;2.55;;;;;;;;;;4862489;29;20026;-79
2022/10/28 11:21:50;;;;;;;3.22;2.28;;;;;;;;;;4858292;29;20046;-78
2022/10/28 11:24:25;;;;;;;4.05;2.55;;;;;;;;;;4834088;29;20186;-80
2022/10/28 11:27:05;;;;;;;5.88;2.83;;;;;;;;;;4837902;29;20056;-81
2022/10/28 11:29:33;;;;;;;6.13;3.70;;;;;;;;;;4850295;29;20390;-81
2022/10/28 11:32:35;;;;;;;5.70;2.65;;;;;;;;;;4859766;29;20029;-80
2022/10/28 11:35:19;;;;;;;10.90;6.63;;;;;;;;;;4863093;29;20040;-78
2022/10/28 11:37:53;;;;;;;6.10;2.80;;;;;;;;;;4862917;29;20131;-82
2022/10/28 11:40:58;;;;;;;19.80;10.05;;;;;;;;;;4868079;29;20071;-77
2022/10/28 11:43:29;;;;;;;5.50;3.67;;;;;;;;;;4862966;29;20093;-83
2022/10/28 11:46:25;;;;;;;7.93;2.72;;;;;;;;;;4860111;29;20036;-79
2022/10/28 11:49:12;;;;;;;7.18;3.45;;;;;;;;;;4872681;29;20045;-84
2022/10/28 11:52:02;;;;;;;4.60;2.55;;;;;;;;;;4870734;29;20040;-84
2022/10/28 11:54:46;;;;;;;6.88;2.78;;;;;;;;;;4875647;29;20033;-80
2022/10/28 11:57:22;;;;;;;4.65;2.58;;;;;;;;;;4867003;29;20533;-82
2022/10/28 12:00:05;;;;;;;5.22;2.65;;;;;;;;;;4868755;29;20108;-82
2022/10/28 12:03:22;;;;;;;8.30;2.90;;;;;;;;;;4875862;29;20033;-79
2022/10/28 12:06:01;;;;;;;4.80;3.20;;;;;;;;;;4854064;29;20050;-82
2022/10/28 12:08:40;;;;;;;4.75;3.08;;;;;;;;;;4860822;29;20078;-80
2022/10/28 12:11:09;;;;;;;9.35;5.13;;;;;;;;;;4857658;29;20036;-82
2022/10/28 12:14:09;;;;;;;36.22;19.88;;;;;;;;;;4873233;29;20119;-82
2022/10/28 12:16:34;;;;;;;5.32;2.88;;;;;;;;;;4863844;29;20041;-80
2022/10/28 12:19:25;;;;;;;8.23;3.10;;;;;;;;;;4873498;29;20025;-81
2022/10/28 12:22:00;;;;;;;9.55;6.43;;;;;;;;;;4865899;29;20030;-79
2022/10/28 12:24:27;;;;;;;20.40;12.60;;;;;;;;;;4875645;29;20052;-80
2022/10/28 12:26:56;;;;;;;16.77;9.82;;;;;;;;;;4871798;29;20029;-81
2022/10/28 12:29:40;;;;;;;15.55;9.85;;;;;;;;;;4883343;29;20495;-80
2022/10/28 12:32:11;;;;;;;;;;;;;;;;;;4875317;29;20481;-79
2022/10/28 12:34:52;;;;;;;8.98;4.10;;;;;;;;;;4873266;29;19919;-80
2022/10/28 12:37:22;;;;;;;24.98;14.55;;;;;;;;;;4874929;29;20465;-81
2022/10/28 12:40:11;;;;;;;12.95;5.50;;;;;;;;;;4869576;29;20577;-79
2022/10/28 12:43:03;;;;;;;10.20;5.65;;;;;;;;;;4865078;29;20453;-78
2022/10/28 12:45:31;;;;;;;7.90;3.40;;;;;;;;;;4852288;29;20041;-80
2022/10/28 12:48:06;;;;;;;3.92;2.47;;;;;;;;;;4865424;29;20025;-79
2022/10/28 12:50:48;;;;;;;4.22;2.60;;;;;;;;;;4864444;29;20069;-80
2022/10/28 12:53:30;;;;;;;4.75;2.20;;;;;;;;;;4851585;29;20128;-80
2022/10/28 12:55:59;;;;;;;3.78;2.40;;;;;;;;;;4859280;29;20041;-78
2022/10/28 12:58:30;;;;;;;8.73;2.55;;;;;;;;;;4864933;29;20385;-77
2022/10/28 13:01:12;;;;;;;6.53;3.30;;;;;;;;;;4862159;29;20038;-81
2022/10/28 13:03:38;;;;;;;7.88;3.35;;;;;;;;;;4875736;29;20108;-80
2022/10/28 13:06:20;;;;;;;5.47;2.95;;;;;;;;;;4875641;29;20051;-80
2022/10/28 13:09:04;;;;;;;5.75;2.63;;;;;;;;;;4855956;29;20022;-85
2022/10/28 13:11:58;;;;;;;5.47;2.70;;;;;;;;;;4860017;29;20029;-84
2022/10/28 13:14:42;;;;;;;9.95;5.22;;;;;;;;;;4863928;29;20076;-77
2022/10/28 13:17:56;;;;;;;5.80;3.90;;;;;;;;;;4872853;29;20040;-78
2022/10/28 13:20:37;;;;;;;8.40;3.00;;;;;;;;;;4806971;29;20039;-78
2022/10/28 13:23:34;;;;;;;6.53;2.90;;;;;;;;;;4872496;29;20041;-77
2022/10/28 13:26:02;;;;;;;7.78;4.05;;;;;;;;;;4857845;29;20071;-78
2022/10/28 13:28:33;;;;;;;5.35;2.60;;;;;;;;;;4871314;29;20021;-79
2022/10/28 13:31:04;;;;;;;5.78;3.63;;;;;;;;;;4873482;29;20039;-78
2022/10/28 13:33:34;;;;;;;7.03;3.50;;;;;;;;;;4867780;29;20037;-78
2022/10/28 13:36:37;;;;;;;6.70;3.30;;;;;;;;;;4872926;29;20116;-78
2022/10/28 13:39:06;;;;;;;5.97;2.80;;;;;;;;;;4856806;29;20645;-78
2022/10/28 13:41:39;;;;;;;10.27;3.10;;;;;;;;;;4865550;29;20031;-78
2022/10/28 13:44:08;;;;;;;5.97;3.10;;;;;;;;;;4870856;29;20033;-77
2022/10/28 13:46:55;;;;;;;7.72;3.13;;;;;;;;;;4876461;29;20127;-77
2022/10/28 13:49:35;;;;;;;8.82;4.47;;;;;;;;;;4876587;29;20108;-79
2022/10/28 13:52:19;;;;;;;4.68;2.60;;;;;;;;;;4873578;29;20033;-79
2022/10/28 13:54:45;;;;;;;8.10;2.70;;;;;;;;;;4878050;29;20041;-78
2022/10/28 13:57:31;;;;;;;12.73;5.68;;;;;;;;;;4874789;29;20109;-76
2022/10/28 14:00:05;;;;;;;6.35;2.80;;;;;;;;;;4868981;29;20135;-79
2022/10/28 14:02:42;;;;;;;5.15;2.67;;;;;;;;;;4852110;29;20497;-78
2022/10/28 14:05:11;;;;;;;4.03;2.67;;;;;;;;;;4872833;29;20423;-79
2022/10/28 14:07:53;;;;;;;4.47;2.40;;;;;;;;;;4858685;29;20033;-82
2022/10/28 14:10:35;;;;;;;5.65;2.40;;;;;;;;;;4856728;29;20041;-81
2022/10/28 14:13:07;;;;;;;3.70;2.40;;;;;;;;;;4856094;29;20056;-79
2022/10/28 14:15:36;;;;;;;6.18;2.55;;;;;;;;;;4861331;29;20046;-78
2022/10/28 14:18:26;;;;;;;8.13;3.20;;;;;;;;;;4862571;29;20113;-81
2022/10/28 14:20:57;;;;;;;7.25;4.03;;;;;;;;;;4859325;29;20057;-79
2022/10/28 14:23:43;;;;;;;5.28;2.65;;;;;;;;;;4857794;29;20116;-79
2022/10/28 14:26:09;;;;;;;4.32;2.50;;;;;;;;;;4857873;29;20060;-85
2022/10/28 14:28:35;;;;;;;4.45;2.42;;;;;;;;;;4861555;29;20025;-81
2022/10/28 14:31:07;;;;;;;5.13;2.40;;;;;;;;;;4862367;29;20037;-80
2022/10/28 14:33:43;;;;;;;4.50;2.50;;;;;;;;;;4864785;29;20045;-82
2022/10/28 14:36:18;;;;;;;5.32;2.13;;;;;;;;;;4861671;29;20057;-80
2022/10/28 14:39:14;;;;;;;6.57;2.65;;;;;;;;;;4862291;29;20045;-80
2022/10/28 14:42:12;;;;;;;5.05;2.30;;;;;;;;;;4860874;29;20553;-81
2022/10/28 14:44:59;;;;;;;3.13;2.13;;;;;;;;;;4857730;29;20037;-84
2022/10/28 14:47:50;;;;;;;5.53;2.33;;;;;;;;;;4862180;29;20060;-82
2022/10/28 14:50:21;;;;;;;3.00;2.10;;;;;;;;;;4860548;29;20101;-79
2022/10/28 14:52:49;;;;;;;6.85;2.72;;;;;;;;;;4860115;29;20053;-79
2022/10/28 14:55:30;;;;;;;7.03;2.85;;;;;;;;;;4872054;29;20105;-80
2022/10/28 14:58:18;;;;;;;4.15;2.47;;;;;;;;;;4870872;29;20029;-81
2022/10/28 15:01:04;;;;;;;4.78;2.30;;;;;;;;;;4877073;29;20125;-80
2022/10/28 15:03:31;;;;;;;4.05;2.45;;;;;;;;;;4874763;29;20037;-80